createdAt,value
2023-03-17T00:00:20.196Z,100378.58
2023-03-17T00:01:24.546Z,100384.84
2023-03-17T00:02:27.817Z,100379.44
2023-03-17T00:03:34.045Z,100384.08
2023-03-17T00:04:37.335Z,100381.31
2023-03-17T00:05:40.530Z,100385.59
2023-03-17T00:06:44.213Z,100382.97
2023-03-17T00:07:48.230Z,100388.75
2023-03-17T00:08:51.768Z,100381.48
2023-03-17T00:09:58.423Z,100385.06
2023-03-17T00:11:01.568Z,100389.45
2023-03-17T00:12:05.657Z,100384.41
2023-03-17T00:13:10.888Z,100386.02
2023-03-17T00:14:14.033Z,100380.45
2023-03-17T00:15:18.363Z,100381.83
2023-03-17T00:16:26.833Z,100395.44
2023-03-17T00:17:29.473Z,100385.75
2023-03-17T00:18:34.953Z,100392.52
2023-03-17T00:19:38.290Z,100379.45
2023-03-17T00:20:41.778Z,100382.88
2023-03-17T00:21:47.326Z,100385.46
2023-03-17T00:22:52.636Z,100393.04
2023-03-17T00:23:55.692Z,100385.12
2023-03-17T00:25:01.060Z,100384.73
2023-03-17T00:26:04.380Z,100387.79
2023-03-17T00:27:13.040Z,100382.11
2023-03-17T00:28:18.324Z,100387.27
2023-03-17T00:29:21.733Z,100392.66
2023-03-17T00:30:26.596Z,100394.42
2023-03-17T00:31:31.869Z,100395.66
2023-03-17T00:32:38.087Z,100389.42
2023-03-17T00:33:42.341Z,100394.38
2023-03-17T00:34:47.441Z,100399.58
2023-03-17T00:35:53.462Z,100393.52
2023-03-17T00:36:56.833Z,100395.23
2023-03-17T00:37:59.433Z,100393.52
2023-03-17T00:39:05.225Z,100395.91
2023-03-17T00:40:11.929Z,100394.14
2023-03-17T00:41:16.572Z,100399.53
2023-03-17T00:42:24.039Z,100392.28
2023-03-17T00:43:30.772Z,100397.30
2023-03-17T00:44:35.492Z,100390.09
2023-03-17T00:45:42.268Z,100401.44
2023-03-17T00:46:46.831Z,100395.66
2023-03-17T00:47:51.448Z,100395.77
2023-03-17T00:48:55.648Z,100395.33
2023-03-17T00:50:00.140Z,100387.61
2023-03-17T00:51:03.340Z,100394.62
2023-03-17T00:52:06.644Z,100389.66
2023-03-17T00:53:16.204Z,100392.28
2023-03-17T00:54:20.246Z,100392.52
2023-03-17T00:55:25.874Z,100393.95
2023-03-17T00:56:30.723Z,100393.72
2023-03-17T00:57:34.800Z,100396.09
2023-03-17T00:58:38.154Z,100395.19
2023-03-17T00:59:43.150Z,100403.30
2023-03-17T01:00:48.081Z,100392.77
2023-03-17T01:01:50.603Z,100407.12
2023-03-17T01:02:57.796Z,100394.95
2023-03-17T01:04:03.077Z,100397.15
2023-03-17T01:05:07.542Z,100398.77
2023-03-17T01:06:12.466Z,100401.77
2023-03-17T01:07:17.084Z,100393.19
2023-03-17T01:08:24.161Z,100394.62
2023-03-17T01:09:27.998Z,100399.63
2023-03-17T01:10:31.904Z,100393.04
2023-03-17T01:11:35.392Z,100401.48
2023-03-17T01:12:38.815Z,100394.58
2023-03-17T01:13:42.112Z,100397.47
2023-03-17T01:14:46.545Z,100393.42
2023-03-17T01:15:50.980Z,100399.38
2023-03-17T01:16:55.509Z,100393.37
2023-03-17T01:18:00.816Z,100401.97
2023-03-17T01:19:05.165Z,100396.30
2023-03-17T01:20:12.637Z,100398.97
2023-03-17T01:21:16.079Z,100405.77
2023-03-17T01:22:21.181Z,100405.25
2023-03-17T01:23:24.757Z,100408.26
2023-03-17T01:24:29.834Z,100409.87
2023-03-17T01:25:32.724Z,100408.78
2023-03-17T01:26:36.505Z,100409.87
2023-03-17T01:27:40.050Z,100403.68
2023-03-17T01:28:43.243Z,100406.00
2023-03-17T01:29:45.567Z,100415.31
2023-03-17T01:30:49.669Z,100414.63
2023-03-17T01:31:54.387Z,100413.50
2023-03-17T01:32:58.494Z,100408.48
2023-03-17T01:34:01.946Z,100409.48
2023-03-17T01:35:04.413Z,100410.64
2023-03-17T01:36:08.136Z,100412.45
2023-03-17T01:37:11.159Z,100409.39
2023-03-17T01:38:15.392Z,100407.16
2023-03-17T01:39:18.171Z,100411.27
2023-03-17T01:40:23.006Z,100414.41
2023-03-17T01:41:28.620Z,100412.36
2023-03-17T01:42:32.075Z,100415.80
2023-03-17T01:43:34.416Z,100407.35
2023-03-17T01:44:39.411Z,100416.08
2023-03-17T01:46:00.347Z,100414.94
2023-03-17T01:47:03.614Z,100404.53
2023-03-17T01:48:07.204Z,100413.91
2023-03-17T01:49:12.312Z,100415.22
2023-03-17T01:50:16.052Z,100421.06
2023-03-17T01:51:31.025Z,100410.89
2023-03-17T01:52:36.500Z,100422.69
2023-03-17T01:53:40.321Z,100424.72
2023-03-17T01:54:57.385Z,100426.34
2023-03-17T01:56:00.346Z,100426.63
2023-03-17T01:57:23.822Z,100427.98
2023-03-17T01:58:27.258Z,100419.06
2023-03-17T01:59:33.042Z,100423.95
2023-03-17T02:00:36.194Z,100428.69
2023-03-17T02:01:42.820Z,100433.89
2023-03-17T02:02:51.674Z,100433.08
2023-03-17T02:03:55.971Z,100434.49
2023-03-17T02:05:01.188Z,100435.92
2023-03-17T02:06:06.490Z,100437.64
2023-03-17T02:07:11.959Z,100439.05
2023-03-17T02:08:18.310Z,100435.03
2023-03-17T02:09:21.669Z,100445.75
2023-03-17T02:10:28.105Z,100442.53
2023-03-17T02:11:32.443Z,100439.86
2023-03-17T02:12:36.832Z,100435.66
2023-03-17T02:13:43.138Z,100440.86
2023-03-17T02:14:48.257Z,100443.39
2023-03-17T02:15:53.406Z,100444.25
2023-03-17T02:17:00.852Z,100446.02
2023-03-17T02:18:04.352Z,100447.00
2023-03-17T02:19:08.018Z,100455.59
2023-03-17T02:20:21.832Z,100449.95
2023-03-17T02:21:41.171Z,100456.45
2023-03-17T02:22:45.787Z,100456.10
2023-03-17T02:23:50.633Z,100457.73
2023-03-17T02:24:57.270Z,100464.61
2023-03-17T02:26:00.659Z,100463.61
2023-03-17T02:27:13.413Z,100456.29
2023-03-17T02:28:18.553Z,100464.97
2023-03-17T02:29:23.902Z,100458.87
2023-03-17T02:30:27.742Z,100465.92
2023-03-17T02:31:31.469Z,100475.52
2023-03-17T02:32:35.913Z,100464.42
2023-03-17T02:33:38.755Z,100474.74
2023-03-17T02:34:41.514Z,100468.90
2023-03-17T02:35:44.884Z,100463.56
2023-03-17T02:36:48.389Z,100467.69
2023-03-17T02:37:51.658Z,100467.69
2023-03-17T02:38:57.542Z,100461.89
2023-03-17T02:40:05.913Z,100474.74
2023-03-17T02:41:11.345Z,100464.83
2023-03-17T02:42:14.548Z,100467.27
2023-03-17T02:43:17.976Z,100472.25
2023-03-17T02:44:20.826Z,100464.78
2023-03-17T02:45:24.524Z,100471.63
2023-03-17T02:46:28.384Z,100470.72
2023-03-17T02:47:34.495Z,100476.59
2023-03-17T02:48:38.568Z,100468.76
2023-03-17T02:49:42.238Z,100483.88
2023-03-17T02:50:45.661Z,100482.24
2023-03-17T02:51:49.115Z,100478.77
2023-03-17T02:52:52.699Z,100481.16
2023-03-17T02:53:56.887Z,100484.37
2023-03-17T02:55:00.138Z,100477.95
2023-03-17T02:56:03.372Z,100481.66
2023-03-17T02:57:09.674Z,100481.30
2023-03-17T02:58:12.964Z,100490.48
2023-03-17T02:59:16.701Z,100484.86
2023-03-17T03:00:20.437Z,100477.00
2023-03-17T03:01:24.322Z,100478.72
2023-03-17T03:02:27.644Z,100483.20
2023-03-17T03:03:30.661Z,100481.38
2023-03-17T03:04:34.005Z,100481.93
2023-03-17T03:05:37.348Z,100485.36
2023-03-17T03:06:41.822Z,100487.54
2023-03-17T03:07:45.115Z,100479.85
2023-03-17T03:08:48.430Z,100483.10
2023-03-17T03:09:54.579Z,100481.34
2023-03-17T03:10:57.771Z,100487.36
2023-03-17T03:12:02.346Z,100482.20
2023-03-17T03:13:05.756Z,100478.49
2023-03-17T03:14:09.144Z,100488.17
2023-03-17T03:15:11.994Z,100483.88
2023-03-17T03:16:15.654Z,100482.93
2023-03-17T03:17:21.924Z,100485.91
2023-03-17T03:18:27.852Z,100486.41
2023-03-17T03:19:31.066Z,100487.54
2023-03-17T03:20:34.368Z,100488.03
2023-03-17T03:21:37.586Z,100479.12
2023-03-17T03:22:42.396Z,100489.66
2023-03-17T03:23:45.759Z,100495.00
2023-03-17T03:24:49.437Z,100492.56
2023-03-17T03:25:52.801Z,100492.38
2023-03-17T03:26:56.324Z,100490.84
2023-03-17T03:28:01.833Z,100492.56
2023-03-17T03:29:05.072Z,100492.92
2023-03-17T03:30:09.244Z,100496.09
2023-03-17T03:31:12.223Z,100499.58
2023-03-17T03:32:16.612Z,100499.39
2023-03-17T03:33:21.036Z,100494.33
2023-03-17T03:34:24.208Z,100502.33
2023-03-17T03:35:28.213Z,100499.58
2023-03-17T03:36:33.534Z,100503.02
2023-03-17T03:37:37.463Z,100498.77
2023-03-17T03:38:41.136Z,100502.16
2023-03-17T03:39:44.263Z,100500.39
2023-03-17T03:40:47.477Z,100505.91
2023-03-17T03:41:50.825Z,100500.19
2023-03-17T03:42:55.103Z,100505.95
2023-03-17T03:43:58.620Z,100508.27
2023-03-17T03:45:03.036Z,100509.70
2023-03-17T03:46:08.853Z,100503.23
2023-03-17T03:47:12.424Z,100507.36
2023-03-17T03:48:16.075Z,100519.02
2023-03-17T03:49:18.461Z,100512.23
2023-03-17T03:50:25.123Z,100514.22
2023-03-17T03:51:28.174Z,100510.52
2023-03-17T03:52:34.493Z,100510.78
2023-03-17T03:53:36.813Z,100510.03
2023-03-17T03:54:41.431Z,100506.13
2023-03-17T03:55:44.878Z,100516.02
2023-03-17T03:56:50.699Z,100515.55
2023-03-17T03:57:53.049Z,100525.18
2023-03-17T03:58:56.960Z,100518.73
2023-03-17T04:00:01.911Z,100520.97
2023-03-17T04:01:08.895Z,100521.02
2023-03-17T04:02:13.412Z,100518.55
2023-03-17T04:03:17.165Z,100518.78
2023-03-17T04:04:22.178Z,100519.59
2023-03-17T04:05:26.484Z,100526.65
2023-03-17T04:06:30.009Z,100522.39
2023-03-17T04:07:33.191Z,100532.07
2023-03-17T04:08:36.453Z,100535.37
2023-03-17T04:09:38.825Z,100526.98
2023-03-17T04:10:42.587Z,100531.94
2023-03-17T04:11:47.864Z,100537.56
2023-03-17T04:12:53.621Z,100534.52
2023-03-17T04:13:57.288Z,100537.05
2023-03-17T04:15:00.948Z,100536.83
2023-03-17T04:16:03.909Z,100535.24
2023-03-17T04:17:10.486Z,100535.89
2023-03-17T04:18:13.681Z,100543.54
2023-03-17T04:19:17.636Z,100548.58
2023-03-17T04:20:21.439Z,100544.79
2023-03-17T04:21:25.009Z,100544.32
2023-03-17T04:22:27.686Z,100550.42
2023-03-17T04:23:33.086Z,100547.72
2023-03-17T04:24:36.351Z,100550.13
2023-03-17T04:25:39.654Z,100554.59
2023-03-17T04:26:42.253Z,100559.23
2023-03-17T04:27:45.753Z,100556.27
2023-03-17T04:28:49.344Z,100557.34
2023-03-17T04:29:52.173Z,100550.34
2023-03-17T04:30:55.341Z,100560.95
2023-03-17T04:31:58.729Z,100552.31
2023-03-17T04:33:02.130Z,100551.83
2023-03-17T04:34:04.429Z,100559.56
2023-03-17T04:35:08.914Z,100560.98
2023-03-17T04:36:17.307Z,100559.16
2023-03-17T04:37:20.341Z,100555.41
2023-03-17T04:38:23.731Z,100560.74
2023-03-17T04:39:27.953Z,100560.70
2023-03-17T04:40:31.553Z,100564.05
2023-03-17T04:41:36.143Z,100569.82
2023-03-17T04:42:38.961Z,100565.17
2023-03-17T04:43:42.239Z,100573.22
2023-03-17T04:44:45.418Z,100568.02
2023-03-17T04:45:48.329Z,100568.52
2023-03-17T04:46:51.664Z,100575.54
2023-03-17T04:47:54.900Z,100572.44
2023-03-17T04:48:58.104Z,100574.08
2023-03-17T04:50:02.216Z,100578.30
2023-03-17T04:51:11.001Z,100580.19
2023-03-17T04:52:13.759Z,100578.03
2023-03-17T04:53:16.768Z,100583.80
2023-03-17T04:54:19.333Z,100577.30
2023-03-17T04:55:22.582Z,100581.98
2023-03-17T04:56:27.318Z,100586.89
2023-03-17T04:57:30.897Z,100587.45
2023-03-17T04:58:34.100Z,100582.80
2023-03-17T04:59:36.465Z,100579.80
2023-03-17T05:00:39.502Z,100581.30
2023-03-17T05:01:44.076Z,100589.27
2023-03-17T05:02:48.345Z,100591.38
2023-03-17T05:03:52.031Z,100590.98
2023-03-17T05:04:55.474Z,100597.34
2023-03-17T05:05:58.128Z,100593.61
2023-03-17T05:07:01.910Z,100593.30
2023-03-17T05:09:18.019Z,100595.54
2023-03-17T05:10:21.210Z,100587.98
2023-03-17T05:11:24.715Z,100594.86
2023-03-17T05:12:28.428Z,100600.58
2023-03-17T05:13:32.663Z,100598.28
2023-03-17T05:14:36.501Z,100598.94
2023-03-17T05:15:40.618Z,100599.67
2023-03-17T05:16:44.358Z,100605.60
2023-03-17T05:17:46.791Z,100615.84
2023-03-17T05:18:50.082Z,100607.80
2023-03-17T05:19:53.495Z,100608.79
2023-03-17T05:20:56.997Z,100610.69
2023-03-17T05:22:00.390Z,100611.23
2023-03-17T05:23:04.109Z,100612.27
2023-03-17T05:24:14.830Z,100606.81
2023-03-17T05:25:18.737Z,100598.58
2023-03-17T05:26:22.242Z,100608.64
2023-03-17T05:27:28.184Z,100605.16
2023-03-17T05:28:31.970Z,100609.03
2023-03-17T05:29:35.482Z,100604.41
2023-03-17T05:30:38.928Z,100604.45
2023-03-17T05:31:48.521Z,100605.64
2023-03-17T05:32:52.189Z,100602.93
2023-03-17T05:33:55.448Z,100601.72
2023-03-17T05:34:58.532Z,100608.36
2023-03-17T05:36:02.311Z,100608.49
2023-03-17T05:37:06.692Z,100612.10
2023-03-17T05:38:12.677Z,100609.80
2023-03-17T05:39:16.000Z,100612.43
2023-03-17T05:40:18.682Z,100610.63
2023-03-17T05:41:22.696Z,100610.55
2023-03-17T05:42:26.205Z,100616.37
2023-03-17T05:43:29.708Z,100621.50
2023-03-17T05:44:33.219Z,100616.33
2023-03-17T05:45:37.344Z,100616.06
2023-03-17T05:46:40.225Z,100623.18
2023-03-17T05:47:43.211Z,100617.38
2023-03-17T05:48:47.751Z,100618.19
2023-03-17T05:49:51.571Z,100629.24
2023-03-17T05:50:54.973Z,100617.42
2023-03-17T05:51:58.393Z,100618.88
2023-03-17T05:53:01.354Z,100616.75
2023-03-17T05:54:05.276Z,100628.19
2023-03-17T05:55:08.378Z,100620.81
2023-03-17T05:56:13.541Z,100618.78
2023-03-17T05:57:19.036Z,100627.02
2023-03-17T05:58:24.002Z,100626.51
2023-03-17T05:59:27.296Z,100622.81
2023-03-17T06:00:31.822Z,100626.64
2023-03-17T06:01:36.289Z,100626.84
2023-03-17T06:02:43.001Z,100631.59
2023-03-17T06:03:45.768Z,100622.67
2023-03-17T06:04:48.166Z,100622.72
2023-03-17T06:05:51.674Z,100636.84
2023-03-17T06:06:54.241Z,100626.93
2023-03-17T06:07:57.844Z,100627.34
2023-03-17T06:09:01.140Z,100631.99
2023-03-17T06:10:04.747Z,100634.77
2023-03-17T06:11:08.988Z,100643.05
2023-03-17T06:12:12.285Z,100640.66
2023-03-17T06:13:15.697Z,100642.81
2023-03-17T06:14:19.396Z,100641.66
2023-03-17T06:15:24.178Z,100642.42
2023-03-17T06:16:28.424Z,100632.59
2023-03-17T06:17:32.417Z,100645.31
2023-03-17T06:18:35.821Z,100648.06
2023-03-17T06:19:39.740Z,100648.75
2023-03-17T06:20:45.233Z,100644.95
2023-03-17T06:21:49.047Z,100644.50
2023-03-17T06:23:03.200Z,100641.28
2023-03-17T06:23:56.483Z,100646.36
2023-03-17T06:25:03.164Z,100641.69
2023-03-17T06:26:07.767Z,100640.47
2023-03-17T06:27:11.683Z,100651.38
2023-03-17T06:28:15.304Z,100648.75
2023-03-17T06:29:17.969Z,100647.77
2023-03-17T06:30:22.102Z,100651.73
2023-03-17T06:31:25.557Z,100650.39
2023-03-17T06:32:30.471Z,100646.77
2023-03-17T06:33:35.753Z,100650.84
2023-03-17T06:34:39.254Z,100649.62
2023-03-17T06:35:42.712Z,100648.34
2023-03-17T06:36:47.309Z,100651.52
2023-03-17T06:37:52.283Z,100649.98
2023-03-17T06:38:56.093Z,100646.53
2023-03-17T06:40:01.481Z,100648.21
2023-03-17T06:41:05.094Z,100657.55
2023-03-17T06:42:09.114Z,100650.62
2023-03-17T06:43:16.006Z,100655.64
2023-03-17T06:44:22.288Z,100650.38
2023-03-17T06:45:26.209Z,100657.45
2023-03-17T06:46:30.139Z,100660.53
2023-03-17T06:47:34.804Z,100656.77
2023-03-17T06:48:37.978Z,100653.31
2023-03-17T06:49:42.871Z,100657.85
2023-03-17T06:50:48.281Z,100652.98
2023-03-17T06:51:52.463Z,100657.18
2023-03-17T06:52:57.872Z,100654.61
2023-03-17T06:54:02.190Z,100663.64
2023-03-17T06:55:07.912Z,100654.66
2023-03-17T06:56:23.516Z,100664.51
2023-03-17T06:57:16.359Z,100657.48
2023-03-17T06:58:22.514Z,100661.59
2023-03-17T06:59:25.881Z,100654.48
2023-03-17T07:00:28.267Z,100668.09
2023-03-17T07:01:31.434Z,100661.69
2023-03-17T07:02:36.471Z,100664.27
2023-03-17T07:03:40.418Z,100669.34
2023-03-17T07:04:43.899Z,100674.16
2023-03-17T07:05:47.532Z,100665.75
2023-03-17T07:06:52.395Z,100675.52
2023-03-17T07:07:55.794Z,100671.08
2023-03-17T07:08:59.813Z,100667.36
2023-03-17T07:10:03.534Z,100669.76
2023-03-17T07:11:07.148Z,100670.36
2023-03-17T07:12:09.942Z,100668.50
2023-03-17T07:13:13.657Z,100674.52
2023-03-17T07:14:18.183Z,100668.36
2023-03-17T07:15:23.798Z,100675.75
2023-03-17T07:16:28.471Z,100682.59
2023-03-17T07:17:31.028Z,100677.23
2023-03-17T07:18:35.140Z,100682.01
2023-03-17T07:19:39.291Z,100687.34
2023-03-17T07:20:42.658Z,100680.72
2023-03-17T07:21:46.955Z,100687.79
2023-03-17T07:22:49.780Z,100693.27
2023-03-17T07:23:53.185Z,100684.77
2023-03-17T07:24:56.786Z,100691.80
2023-03-17T07:26:00.407Z,100690.66
2023-03-17T07:27:05.164Z,100692.31
2023-03-17T07:28:08.900Z,100697.77
2023-03-17T07:29:11.223Z,100700.64
2023-03-17T07:30:19.123Z,100697.86
2023-03-17T07:31:25.041Z,100692.66
2023-03-17T07:32:29.072Z,100696.66
2023-03-17T07:33:34.368Z,100695.23
2023-03-17T07:34:38.175Z,100698.45
2023-03-17T07:35:42.308Z,100701.27
2023-03-17T07:36:48.935Z,100700.22
2023-03-17T07:37:52.420Z,100699.45
2023-03-17T07:38:55.402Z,100703.56
2023-03-17T07:40:01.006Z,100698.25
2023-03-17T07:41:04.289Z,100693.12
2023-03-17T07:42:07.693Z,100696.36
2023-03-17T07:43:17.365Z,100704.02
2023-03-17T07:44:21.595Z,100703.41
2023-03-17T07:45:27.349Z,100703.27
2023-03-17T07:46:30.987Z,100702.59
2023-03-17T07:47:34.520Z,100703.33
2023-03-17T07:48:39.644Z,100703.85
2023-03-17T07:49:44.497Z,100707.20
2023-03-17T07:50:50.053Z,100700.16
2023-03-17T07:51:54.485Z,100700.98
2023-03-17T07:52:58.408Z,100706.19
2023-03-17T07:54:03.767Z,100699.88
2023-03-17T07:55:09.179Z,100707.00
2023-03-17T07:56:13.229Z,100708.58
2023-03-17T07:57:17.305Z,100712.78
2023-03-17T07:58:21.179Z,100717.78
2023-03-17T07:59:24.765Z,100711.11
2023-03-17T08:00:30.077Z,100711.11
2023-03-17T08:01:36.129Z,100712.83
2023-03-17T08:02:40.677Z,100715.23
2023-03-17T08:03:43.736Z,100716.70
2023-03-17T08:04:47.641Z,100722.59
2023-03-17T08:05:55.943Z,100716.22
2023-03-17T08:06:58.720Z,100724.27
2023-03-17T08:08:03.155Z,100718.95
2023-03-17T08:09:06.880Z,100723.97
2023-03-17T08:10:13.462Z,100718.02
2023-03-17T08:11:18.284Z,100720.45
2023-03-17T08:12:21.903Z,100720.00
2023-03-17T08:13:24.756Z,100717.37
2023-03-17T08:14:28.042Z,100721.15
2023-03-17T08:15:33.218Z,100728.23
2023-03-17T08:16:36.570Z,100730.61
2023-03-17T08:17:41.374Z,100722.92
2023-03-17T08:18:45.114Z,100726.61
2023-03-17T08:19:56.157Z,100722.39
2023-03-17T08:21:00.892Z,100724.09
2023-03-17T08:22:04.638Z,100727.33
2023-03-17T08:23:08.091Z,100718.47
2023-03-17T08:24:10.685Z,100724.51
2023-03-17T08:25:14.373Z,100728.30
2023-03-17T08:26:19.251Z,100724.75
2023-03-17T08:27:22.845Z,100725.66
2023-03-17T08:28:26.380Z,100726.47
2023-03-17T08:29:30.582Z,100718.98
2023-03-17T08:30:36.632Z,100723.84
2023-03-17T08:31:41.118Z,100724.14
2023-03-17T08:32:45.412Z,100722.92
2023-03-17T08:33:54.707Z,100723.94
2023-03-17T08:34:58.348Z,100727.74
2023-03-17T08:36:06.556Z,100725.83
2023-03-17T08:37:11.469Z,100729.27
2023-03-17T08:38:14.080Z,100727.19
2023-03-17T08:39:18.315Z,100733.91
2023-03-17T08:40:21.823Z,100733.24
2023-03-17T08:41:27.735Z,100729.70
2023-03-17T08:42:31.236Z,100728.89
2023-03-17T08:43:35.576Z,100728.81
2023-03-17T08:44:39.304Z,100730.88
2023-03-17T08:45:44.067Z,100725.37
2023-03-17T08:46:47.134Z,100729.31
2023-03-17T08:47:54.087Z,100733.55
2023-03-17T08:48:59.309Z,100734.98
2023-03-17T08:50:03.182Z,100724.45
2023-03-17T08:51:06.617Z,100738.42
2023-03-17T08:52:12.077Z,100732.35
2023-03-17T08:53:14.746Z,100729.11
2023-03-17T08:54:17.938Z,100727.84
2023-03-17T08:55:22.892Z,100733.00
2023-03-17T08:56:28.082Z,100739.34
2023-03-17T08:57:33.390Z,100728.34
2023-03-17T08:58:41.897Z,100736.09
2023-03-17T08:59:46.746Z,100738.16
2023-03-17T09:00:50.457Z,100734.78
2023-03-17T09:01:53.831Z,100733.75
2023-03-17T09:02:58.916Z,100734.27
2023-03-17T09:04:04.423Z,100738.31
2023-03-17T09:05:08.456Z,100733.75
2023-03-17T09:06:11.847Z,100734.72
2023-03-17T09:07:14.730Z,100732.67
2023-03-17T09:08:18.966Z,100740.55
2023-03-17T09:09:24.062Z,100735.47
2023-03-17T09:10:30.618Z,100732.31
2023-03-17T09:11:34.803Z,100736.07
2023-03-17T09:12:39.049Z,100740.09
2023-03-17T09:13:41.658Z,100745.64
2023-03-17T09:14:47.396Z,100741.09
2023-03-17T09:15:51.871Z,100739.02
2023-03-17T09:16:55.149Z,100744.44
2023-03-17T09:17:57.613Z,100750.36
2023-03-17T09:19:01.218Z,100745.41
2023-03-17T09:20:05.870Z,100750.27
2023-03-17T09:21:11.574Z,100745.01
2023-03-17T09:22:16.959Z,100745.60
2023-03-17T09:23:20.358Z,100747.22
2023-03-17T09:24:23.339Z,100751.19
2023-03-17T09:25:27.049Z,100751.32
2023-03-17T09:26:32.563Z,100745.44
2023-03-17T09:27:36.044Z,100749.95
2023-03-17T09:28:39.874Z,100757.61
2023-03-17T09:29:43.290Z,100751.16
2023-03-17T09:30:46.881Z,100754.30
2023-03-17T09:31:50.491Z,100759.47
2023-03-17T09:32:54.108Z,100757.20
2023-03-17T09:33:56.656Z,100761.61
2023-03-17T09:35:00.088Z,100758.31
2023-03-17T09:36:05.167Z,100757.28
2023-03-17T09:37:10.523Z,100751.73
2023-03-17T09:38:14.544Z,100759.81
2023-03-17T09:39:18.149Z,100754.92
2023-03-17T09:40:24.057Z,100754.06
2023-03-17T09:41:36.127Z,100762.25
2023-03-17T09:42:50.932Z,100764.55
2023-03-17T09:43:55.878Z,100767.69
2023-03-17T09:45:18.084Z,100764.77
2023-03-17T09:46:28.344Z,100759.00
2023-03-17T09:47:37.000Z,100765.99
2023-03-17T09:48:44.572Z,100763.58
2023-03-17T09:49:59.360Z,100764.77
2023-03-17T09:51:05.710Z,100767.74
2023-03-17T09:52:12.010Z,100763.97
2023-03-17T09:53:20.534Z,100766.94
2023-03-17T09:54:26.865Z,100766.18
2023-03-17T09:55:32.146Z,100764.23
2023-03-17T09:56:38.460Z,100771.88
2023-03-17T09:57:41.551Z,100759.45
2023-03-17T09:58:51.140Z,100764.33
2023-03-17T10:00:03.576Z,100767.81
2023-03-17T10:01:11.782Z,100773.76
2023-03-17T10:02:23.352Z,100771.47
2023-03-17T10:03:28.005Z,100771.58
2023-03-17T10:04:32.450Z,100773.19
2023-03-17T10:05:38.786Z,100772.79
2023-03-17T10:06:48.531Z,100769.35
2023-03-17T10:08:03.437Z,100761.10
2023-03-17T10:09:26.188Z,100772.84
2023-03-17T10:10:31.951Z,100769.18
2023-03-17T10:11:42.267Z,100774.12
2023-03-17T10:12:59.471Z,100771.98
2023-03-17T10:14:04.536Z,100772.56
2023-03-17T10:15:14.813Z,100776.95
2023-03-17T10:16:20.044Z,100774.67
2023-03-17T10:17:30.212Z,100772.69
2023-03-17T10:18:38.752Z,100776.04
2023-03-17T10:19:55.779Z,100782.94
2023-03-17T10:21:03.775Z,100781.66
2023-03-17T10:22:08.640Z,100787.73
2023-03-17T10:23:13.966Z,100778.76
2023-03-17T10:24:19.222Z,100785.90
2023-03-17T10:25:24.985Z,100790.50
2023-03-17T10:26:39.179Z,100787.16
2023-03-17T10:27:43.188Z,100785.45
2023-03-17T10:28:46.798Z,100786.27
2023-03-17T10:29:49.468Z,100788.48
2023-03-17T10:30:53.719Z,100787.01
2023-03-17T10:31:58.815Z,100784.72
2023-03-17T10:33:06.412Z,100782.76
2023-03-17T10:34:13.319Z,100788.08
2023-03-17T10:35:17.854Z,100786.87
2023-03-17T10:36:24.187Z,100789.39
2023-03-17T10:37:30.946Z,100794.97
2023-03-17T10:38:34.618Z,100790.80
2023-03-17T10:39:46.604Z,100791.98
2023-03-17T10:41:00.342Z,100790.65
2023-03-17T10:42:12.136Z,100788.88
2023-03-17T10:43:22.393Z,100800.22
2023-03-17T10:44:45.666Z,100786.48
2023-03-17T10:46:03.247Z,100788.12
2023-03-17T10:47:06.930Z,100787.80
2023-03-17T10:48:11.372Z,100800.16
2023-03-17T10:49:18.667Z,100795.47
2023-03-17T10:50:29.986Z,100789.80
2023-03-17T10:51:35.981Z,100794.66
2023-03-17T10:52:42.593Z,100796.09
2023-03-17T10:53:46.474Z,100799.25
2023-03-17T10:54:53.586Z,100803.49
2023-03-17T10:55:59.334Z,100792.56
2023-03-17T10:57:05.261Z,100795.52
2023-03-17T10:58:11.556Z,100793.19
2023-03-17T10:59:22.971Z,100794.96
2023-03-17T11:00:27.674Z,100793.30
2023-03-17T11:01:32.316Z,100795.11
2023-03-17T11:02:40.837Z,100793.34
2023-03-17T11:03:45.590Z,100788.92
2023-03-17T11:04:47.941Z,100802.96
2023-03-17T11:06:09.383Z,100794.42
2023-03-17T11:07:21.170Z,100792.03
2023-03-17T11:08:24.788Z,100794.97
2023-03-17T11:09:31.414Z,100799.33
2023-03-17T11:10:36.827Z,100801.15
2023-03-17T11:11:44.400Z,100803.83
2023-03-17T11:12:50.079Z,100804.88
2023-03-17T11:14:06.964Z,100805.34
2023-03-17T11:15:18.261Z,100799.17
2023-03-17T11:16:22.835Z,100796.27
2023-03-17T11:17:43.596Z,100798.85
2023-03-17T11:18:48.803Z,100804.23
2023-03-17T11:19:57.182Z,100799.98
2023-03-17T11:21:15.302Z,100799.07
2023-03-17T11:22:21.530Z,100792.62
2023-03-17T11:23:27.138Z,100807.95
2023-03-17T11:24:33.530Z,100803.53
2023-03-17T11:25:39.609Z,100801.03
2023-03-17T11:26:47.448Z,100794.16
2023-03-17T11:27:56.320Z,100808.94
2023-03-17T11:29:12.464Z,100809.25
2023-03-17T11:30:18.477Z,100809.09
2023-03-17T11:32:50.673Z,100812.75
2023-03-17T11:34:01.346Z,100812.12
2023-03-17T11:35:18.692Z,100806.41
2023-03-17T11:36:26.721Z,100810.46
2023-03-17T11:37:52.114Z,100806.26
2023-03-17T11:38:59.678Z,100803.23
2023-03-17T11:40:04.516Z,100811.31
2023-03-17T11:41:10.004Z,100808.08
2023-03-17T11:42:21.339Z,100809.91
2023-03-17T11:43:35.598Z,100812.87
2023-03-17T11:44:42.546Z,100806.62
2023-03-17T11:45:57.783Z,100808.19
2023-03-17T11:47:03.056Z,100807.98
2023-03-17T11:48:17.824Z,100809.91
2023-03-17T11:49:24.979Z,100811.43
2023-03-17T11:50:30.790Z,100809.95
2023-03-17T11:51:37.841Z,100812.99
2023-03-17T11:53:01.613Z,100807.62
2023-03-17T11:54:13.987Z,100810.75
2023-03-17T11:55:24.390Z,100813.78
2023-03-17T11:56:34.882Z,100819.36
2023-03-17T11:57:57.299Z,100808.06
2023-03-17T11:59:05.581Z,100811.39
2023-03-17T12:00:21.130Z,100819.38
2023-03-17T12:01:26.707Z,100815.55
2023-03-17T12:02:36.187Z,100820.33
2023-03-17T12:03:42.667Z,100816.72
2023-03-17T12:04:54.885Z,100814.53
2023-03-17T12:05:58.867Z,100811.30
2023-03-17T12:07:04.194Z,100816.03
2023-03-17T12:08:18.663Z,100820.19
2023-03-17T12:09:25.409Z,100823.55
2023-03-17T12:10:38.321Z,100825.59
2023-03-17T12:11:44.838Z,100825.14
2023-03-17T12:12:53.474Z,100826.62
2023-03-17T12:14:05.435Z,100816.84
2023-03-17T12:15:11.073Z,100827.02
2023-03-17T12:16:16.544Z,100832.42
2023-03-17T12:17:26.893Z,100832.23
2023-03-17T12:18:31.767Z,100826.69
2023-03-17T12:19:55.861Z,100830.18
2023-03-17T12:21:10.855Z,100829.42
2023-03-17T12:22:16.134Z,100835.11
2023-03-17T12:23:29.659Z,100837.45
2023-03-17T12:24:40.081Z,100838.27
2023-03-17T12:25:47.434Z,100838.77
2023-03-17T12:27:05.984Z,100845.26
2023-03-17T12:28:13.320Z,100844.86
2023-03-17T12:29:18.525Z,100842.62